sensor_id;sensor_type;location;lat;lon;timestamp;temperature;humidity
10905;DHT22;5505;51.450;9.254;2023-09-18T00:02:04;17.40;99.90
10905;DHT22;5505;51.450;9.254;2023-09-18T00:04:51;17.50;99.90
10905;DHT22;5505;51.450;9.254;2023-09-18T00:07:39;17.50;99.90
10905;DHT22;5505;51.450;9.254;2023-09-18T00:10:26;17.40;99.90
10905;DHT22;5505;51.450;9.254;2023-09-18T00:13:14;17.30;99.90
10905;DHT22;5505;51.450;9.254;2023-09-18T00:16:01;17.30;99.90
10905;DHT22;5505;51.450;9.254;2023-09-18T00:18:49;17.20;99.90
10905;DHT22;5505;51.450;9.254;2023-09-18T00:21:36;17.20;99.90
10905;DHT22;5505;51.450;9.254;2023-09-18T00:24:24;17.20;99.90
10905;DHT22;5505;51.450;9.254;2023-09-18T00:27:11;17.10;99.90
10905;DHT22;5505;51.450;9.254;2023-09-18T00:29:58;17.10;99.90
10905;DHT22;5505;51.450;9.254;2023-09-18T00:32:44;17.00;99.90
10905;DHT22;5505;51.450;9.254;2023-09-18T00:35:32;16.80;99.90
10905;DHT22;5505;51.450;9.254;2023-09-18T00:38:19;16.80;99.90
10905;DHT22;5505;51.450;9.254;2023-09-18T00:41:07;16.70;99.90
10905;DHT22;5505;51.450;9.254;2023-09-18T00:43:54;16.70;99.90
10905;DHT22;5505;51.450;9.254;2023-09-18T00:46:40;16.70;99.90
10905;DHT22;5505;51.450;9.254;2023-09-18T00:49:27;16.70;99.90
10905;DHT22;5505;51.450;9.254;2023-09-18T00:52:15;16.70;99.90
10905;DHT22;5505;51.450;9.254;2023-09-18T00:55:02;16.70;99.90
10905;DHT22;5505;51.450;9.254;2023-09-18T00:57:50;16.70;99.90
10905;DHT22;5505;51.450;9.254;2023-09-18T01:00:37;16.70;99.90
10905;DHT22;5505;51.450;9.254;2023-09-18T01:03:24;16.70;99.90
10905;DHT22;5505;51.450;9.254;2023-09-18T01:06:11;16.70;99.90
10905;DHT22;5505;51.450;9.254;2023-09-18T01:08:58;16.70;99.90
10905;DHT22;5505;51.450;9.254;2023-09-18T01:11:52;17.00;99.90
10905;DHT22;5505;51.450;9.254;2023-09-18T01:14:47;16.70;99.90
10905;DHT22;5505;51.450;9.254;2023-09-18T01:17:37;16.70;99.90
10905;DHT22;5505;51.450;9.254;2023-09-18T01:20:25;16.60;99.90
10905;DHT22;5505;51.450;9.254;2023-09-18T01:23:14;16.60;99.90
10905;DHT22;5505;51.450;9.254;2023-09-18T01:26:01;16.60;99.90
10905;DHT22;5505;51.450;9.254;2023-09-18T01:28:48;16.70;99.90
10905;DHT22;5505;51.450;9.254;2023-09-18T01:31:35;16.70;99.90
10905;DHT22;5505;51.450;9.254;2023-09-18T01:34:25;16.80;99.90
10905;DHT22;5505;51.450;9.254;2023-09-18T01:37:13;16.80;99.90
10905;DHT22;5505;51.450;9.254;2023-09-18T01:40:02;16.70;99.90
10905;DHT22;5505;51.450;9.254;2023-09-18T01:42:52;16.80;99.90
10905;DHT22;5505;51.450;9.254;2023-09-18T01:45:39;16.80;99.90
10905;DHT22;5505;51.450;9.254;2023-09-18T01:48:26;16.70;99.90
10905;DHT22;5505;51.450;9.254;2023-09-18T01:51:13;16.70;99.90
10905;DHT22;5505;51.450;9.254;2023-09-18T01:54:00;17.10;99.90
10905;DHT22;5505;51.450;9.254;2023-09-18T01:56:49;16.80;99.90
10905;DHT22;5505;51.450;9.254;2023-09-18T01:59:35;16.80;99.90
10905;DHT22;5505;51.450;9.254;2023-09-18T02:02:22;16.80;99.90
10905;DHT22;5505;51.450;9.254;2023-09-18T02:05:09;16.90;99.90
10905;DHT22;5505;51.450;9.254;2023-09-18T02:07:56;16.90;99.90
10905;DHT22;5505;51.450;9.254;2023-09-18T02:10:42;16.80;99.90
10905;DHT22;5505;51.450;9.254;2023-09-18T02:13:30;16.90;99.90
10905;DHT22;5505;51.450;9.254;2023-09-18T02:16:17;16.90;99.90
10905;DHT22;5505;51.450;9.254;2023-09-18T02:19:04;16.80;99.90
10905;DHT22;5505;51.450;9.254;2023-09-18T02:21:52;16.80;99.90
10905;DHT22;5505;51.450;9.254;2023-09-18T02:24:39;16.80;99.90
10905;DHT22;5505;51.450;9.254;2023-09-18T02:27:27;16.80;99.90
10905;DHT22;5505;51.450;9.254;2023-09-18T02:30:15;16.80;99.90
10905;DHT22;5505;51.450;9.254;2023-09-18T02:33:02;16.80;99.90
10905;DHT22;5505;51.450;9.254;2023-09-18T02:35:49;16.90;99.90
10905;DHT22;5505;51.450;9.254;2023-09-18T02:38:36;16.90;99.90
10905;DHT22;5505;51.450;9.254;2023-09-18T02:41:23;17.10;99.90
10905;DHT22;5505;51.450;9.254;2023-09-18T02:44:09;17.30;99.90
10905;DHT22;5505;51.450;9.254;2023-09-18T02:46:58;18.40;99.90
10905;DHT22;5505;51.450;9.254;2023-09-18T02:49:44;17.70;99.90
10905;DHT22;5505;51.450;9.254;2023-09-18T02:52:31;17.80;99.90
10905;DHT22;5505;51.450;9.254;2023-09-18T02:55:18;17.80;99.90
10905;DHT22;5505;51.450;9.254;2023-09-18T02:58:05;18.00;99.90
10905;DHT22;5505;51.450;9.254;2023-09-18T03:00:52;18.00;99.90
10905;DHT22;5505;51.450;9.254;2023-09-18T03:03:41;19.20;99.90
10905;DHT22;5505;51.450;9.254;2023-09-18T03:06:27;17.80;99.90
10905;DHT22;5505;51.450;9.254;2023-09-18T03:09:14;17.60;99.90
10905;DHT22;5505;51.450;9.254;2023-09-18T03:12:02;17.40;99.90
10905;DHT22;5505;51.450;9.254;2023-09-18T03:14:49;17.40;99.90
10905;DHT22;5505;51.450;9.254;2023-09-18T03:17:35;17.30;99.90
10905;DHT22;5505;51.450;9.254;2023-09-18T03:20:24;17.20;99.90
10905;DHT22;5505;51.450;9.254;2023-09-18T03:23:10;17.20;99.90
10905;DHT22;5505;51.450;9.254;2023-09-18T03:25:57;17.10;99.90
10905;DHT22;5505;51.450;9.254;2023-09-18T03:28:45;17.00;99.90
10905;DHT22;5505;51.450;9.254;2023-09-18T03:31:32;17.00;99.90
10905;DHT22;5505;51.450;9.254;2023-09-18T03:34:18;16.90;99.90
10905;DHT22;5505;51.450;9.254;2023-09-18T03:37:07;16.90;99.90
10905;DHT22;5505;51.450;9.254;2023-09-18T03:39:53;16.80;99.90
10905;DHT22;5505;51.450;9.254;2023-09-18T03:42:40;16.80;99.90
10905;DHT22;5505;51.450;9.254;2023-09-18T03:45:27;16.80;99.90
10905;DHT22;5505;51.450;9.254;2023-09-18T03:48:14;16.80;99.90
10905;DHT22;5505;51.450;9.254;2023-09-18T03:51:01;17.50;99.90
10905;DHT22;5505;51.450;9.254;2023-09-18T03:53:49;16.90;99.90
10905;DHT22;5505;51.450;9.254;2023-09-18T03:56:36;16.90;99.90
10905;DHT22;5505;51.450;9.254;2023-09-18T03:59:23;17.10;99.90
10905;DHT22;5505;51.450;9.254;2023-09-18T04:02:10;17.30;99.90
10905;DHT22;5505;51.450;9.254;2023-09-18T04:04:56;17.40;99.90
10905;DHT22;5505;51.450;9.254;2023-09-18T04:07:43;17.50;99.90
10905;DHT22;5505;51.450;9.254;2023-09-18T04:10:33;17.70;99.90
10905;DHT22;5505;51.450;9.254;2023-09-18T04:13:20;17.80;99.90
10905;DHT22;5505;51.450;9.254;2023-09-18T04:16:06;17.90;99.90
10905;DHT22;5505;51.450;9.254;2023-09-18T04:18:53;18.10;99.90
10905;DHT22;5505;51.450;9.254;2023-09-18T04:21:40;18.10;99.90
10905;DHT22;5505;51.450;9.254;2023-09-18T04:24:27;18.00;99.90
10905;DHT22;5505;51.450;9.254;2023-09-18T04:27:15;17.90;99.90
10905;DHT22;5505;51.450;9.254;2023-09-18T04:30:02;17.90;99.90
10905;DHT22;5505;51.450;9.254;2023-09-18T04:32:49;17.90;99.90
10905;DHT22;5505;51.450;9.254;2023-09-18T04:35:37;18.20;99.90
10905;DHT22;5505;51.450;9.254;2023-09-18T04:38:24;18.40;99.90
10905;DHT22;5505;51.450;9.254;2023-09-18T04:41:11;18.60;99.90
10905;DHT22;5505;51.450;9.254;2023-09-18T04:43:59;18.80;99.90
10905;DHT22;5505;51.450;9.254;2023-09-18T04:46:46;18.90;99.90
10905;DHT22;5505;51.450;9.254;2023-09-18T04:49:34;19.00;99.90
10905;DHT22;5505;51.450;9.254;2023-09-18T04:52:20;19.10;99.90
10905;DHT22;5505;51.450;9.254;2023-09-18T04:55:07;19.10;99.90
10905;DHT22;5505;51.450;9.254;2023-09-18T04:57:54;19.20;99.90
10905;DHT22;5505;51.450;9.254;2023-09-18T05:00:44;19.30;99.90
10905;DHT22;5505;51.450;9.254;2023-09-18T05:03:34;19.30;99.90
10905;DHT22;5505;51.450;9.254;2023-09-18T05:06:20;19.40;99.90
10905;DHT22;5505;51.450;9.254;2023-09-18T05:09:07;19.50;99.90
10905;DHT22;5505;51.450;9.254;2023-09-18T05:11:54;19.50;99.90
10905;DHT22;5505;51.450;9.254;2023-09-18T05:14:41;19.50;99.90
10905;DHT22;5505;51.450;9.254;2023-09-18T05:17:41;19.60;99.90
10905;DHT22;5505;51.450;9.254;2023-09-18T05:20:29;19.50;99.90
10905;DHT22;5505;51.450;9.254;2023-09-18T05:23:16;19.40;99.90
10905;DHT22;5505;51.450;9.254;2023-09-18T05:26:03;19.60;99.90
10905;DHT22;5505;51.450;9.254;2023-09-18T05:28:50;19.40;99.90
10905;DHT22;5505;51.450;9.254;2023-09-18T05:31:39;19.40;99.90
10905;DHT22;5505;51.450;9.254;2023-09-18T05:34:27;19.30;99.90
10905;DHT22;5505;51.450;9.254;2023-09-18T05:37:14;19.30;99.90
10905;DHT22;5505;51.450;9.254;2023-09-18T05:40:01;19.30;99.90
10905;DHT22;5505;51.450;9.254;2023-09-18T05:42:49;19.20;99.90
10905;DHT22;5505;51.450;9.254;2023-09-18T05:45:35;19.20;99.90
10905;DHT22;5505;51.450;9.254;2023-09-18T05:48:22;19.30;99.90
10905;DHT22;5505;51.450;9.254;2023-09-18T05:51:10;19.30;99.90
10905;DHT22;5505;51.450;9.254;2023-09-18T05:53:57;19.30;99.90
10905;DHT22;5505;51.450;9.254;2023-09-18T05:56:44;19.40;99.90
10905;DHT22;5505;51.450;9.254;2023-09-18T05:59:31;19.40;99.90
10905;DHT22;5505;51.450;9.254;2023-09-18T06:02:17;19.40;99.90
10905;DHT22;5505;51.450;9.254;2023-09-18T06:05:07;19.50;99.90
10905;DHT22;5505;51.450;9.254;2023-09-18T06:07:58;19.50;99.90
10905;DHT22;5505;51.450;9.254;2023-09-18T06:10:45;19.50;99.90
10905;DHT22;5505;51.450;9.254;2023-09-18T06:13:31;19.40;99.90
10905;DHT22;5505;51.450;9.254;2023-09-18T06:16:19;19.40;99.90
10905;DHT22;5505;51.450;9.254;2023-09-18T06:19:06;19.50;99.90
10905;DHT22;5505;51.450;9.254;2023-09-18T06:21:53;19.50;99.90
10905;DHT22;5505;51.450;9.254;2023-09-18T06:24:41;19.60;99.90
10905;DHT22;5505;51.450;9.254;2023-09-18T06:27:28;19.60;99.90
10905;DHT22;5505;51.450;9.254;2023-09-18T06:30:15;19.90;99.90
10905;DHT22;5505;51.450;9.254;2023-09-18T06:33:02;20.00;99.90
10905;DHT22;5505;51.450;9.254;2023-09-18T06:35:50;20.10;99.90
10905;DHT22;5505;51.450;9.254;2023-09-18T06:38:37;20.70;99.90
10905;DHT22;5505;51.450;9.254;2023-09-18T06:41:25;20.20;99.90
10905;DHT22;5505;51.450;9.254;2023-09-18T06:44:12;20.20;99.90
10905;DHT22;5505;51.450;9.254;2023-09-18T06:46:59;20.10;99.90
10905;DHT22;5505;51.450;9.254;2023-09-18T06:49:45;20.20;99.90
10905;DHT22;5505;51.450;9.254;2023-09-18T06:52:32;20.20;99.90
10905;DHT22;5505;51.450;9.254;2023-09-18T06:55:19;20.20;99.90
10905;DHT22;5505;51.450;9.254;2023-09-18T06:58:07;20.40;99.90
10905;DHT22;5505;51.450;9.254;2023-09-18T07:00:54;20.40;99.90
10905;DHT22;5505;51.450;9.254;2023-09-18T07:03:43;20.40;99.90
10905;DHT22;5505;51.450;9.254;2023-09-18T07:06:30;20.50;99.90
10905;DHT22;5505;51.450;9.254;2023-09-18T07:09:17;20.60;99.90
10905;DHT22;5505;51.450;9.254;2023-09-18T07:12:04;20.60;99.90
10905;DHT22;5505;51.450;9.254;2023-09-18T07:14:52;20.70;99.90
10905;DHT22;5505;51.450;9.254;2023-09-18T07:17:39;20.70;99.90
10905;DHT22;5505;51.450;9.254;2023-09-18T07:20:26;20.70;99.90
10905;DHT22;5505;51.450;9.254;2023-09-18T07:23:13;20.70;99.90
10905;DHT22;5505;51.450;9.254;2023-09-18T07:25:59;20.70;99.90
10905;DHT22;5505;51.450;9.254;2023-09-18T07:28:46;20.70;99.90
10905;DHT22;5505;51.450;9.254;2023-09-18T07:31:35;20.70;99.90
10905;DHT22;5505;51.450;9.254;2023-09-18T07:34:22;20.70;99.90
10905;DHT22;5505;51.450;9.254;2023-09-18T07:37:09;20.80;99.90
10905;DHT22;5505;51.450;9.254;2023-09-18T07:39:55;20.80;99.90
10905;DHT22;5505;51.450;9.254;2023-09-18T07:42:42;20.80;99.90
10905;DHT22;5505;51.450;9.254;2023-09-18T07:45:30;20.80;99.90
10905;DHT22;5505;51.450;9.254;2023-09-18T07:48:18;20.80;99.90
10905;DHT22;5505;51.450;9.254;2023-09-18T07:51:05;20.80;99.90
10905;DHT22;5505;51.450;9.254;2023-09-18T07:53:52;20.80;99.90
10905;DHT22;5505;51.450;9.254;2023-09-18T07:56:38;20.80;99.90
10905;DHT22;5505;51.450;9.254;2023-09-18T07:59:26;20.80;99.90
10905;DHT22;5505;51.450;9.254;2023-09-18T08:02:13;20.80;99.90
10905;DHT22;5505;51.450;9.254;2023-09-18T08:05:01;20.80;99.90
10905;DHT22;5505;51.450;9.254;2023-09-18T08:07:48;20.70;99.90
10905;DHT22;5505;51.450;9.254;2023-09-18T08:10:37;20.80;99.90
10905;DHT22;5505;51.450;9.254;2023-09-18T08:13:24;20.80;99.90
10905;DHT22;5505;51.450;9.254;2023-09-18T08:16:11;20.90;99.90
10905;DHT22;5505;51.450;9.254;2023-09-18T08:19:00;20.90;99.90
10905;DHT22;5505;51.450;9.254;2023-09-18T08:21:48;20.90;99.90
10905;DHT22;5505;51.450;9.254;2023-09-18T08:24:35;20.90;99.90
10905;DHT22;5505;51.450;9.254;2023-09-18T08:27:24;20.90;99.90
10905;DHT22;5505;51.450;9.254;2023-09-18T08:30:12;20.90;99.90
10905;DHT22;5505;51.450;9.254;2023-09-18T08:32:58;20.90;99.90
10905;DHT22;5505;51.450;9.254;2023-09-18T08:35:45;20.90;99.90
10905;DHT22;5505;51.450;9.254;2023-09-18T08:38:36;20.90;99.90
10905;DHT22;5505;51.450;9.254;2023-09-18T08:41:24;20.80;99.90
10905;DHT22;5505;51.450;9.254;2023-09-18T08:44:12;20.90;99.90
10905;DHT22;5505;51.450;9.254;2023-09-18T08:47:00;20.80;99.90
10905;DHT22;5505;51.450;9.254;2023-09-18T08:49:49;20.80;99.90
10905;DHT22;5505;51.450;9.254;2023-09-18T08:52:38;20.80;99.90
10905;DHT22;5505;51.450;9.254;2023-09-18T08:55:28;20.80;99.90
10905;DHT22;5505;51.450;9.254;2023-09-18T08:58:16;20.90;99.90
10905;DHT22;5505;51.450;9.254;2023-09-18T09:01:05;20.90;99.90
10905;DHT22;5505;51.450;9.254;2023-09-18T09:03:55;20.80;99.90
10905;DHT22;5505;51.450;9.254;2023-09-18T09:06:41;20.90;99.90
10905;DHT22;5505;51.450;9.254;2023-09-18T09:09:29;20.80;99.90
10905;DHT22;5505;51.450;9.254;2023-09-18T09:12:47;20.90;99.90
10905;DHT22;5505;51.450;9.254;2023-09-18T09:15:44;20.90;99.90
10905;DHT22;5505;51.450;9.254;2023-09-18T09:18:31;21.00;99.90
10905;DHT22;5505;51.450;9.254;2023-09-18T09:21:19;21.00;99.90
10905;DHT22;5505;51.450;9.254;2023-09-18T09:24:06;21.00;99.90
10905;DHT22;5505;51.450;9.254;2023-09-18T09:26:58;21.10;99.90
10905;DHT22;5505;51.450;9.254;2023-09-18T09:29:57;21.10;99.90
10905;DHT22;5505;51.450;9.254;2023-09-18T09:32:48;21.10;99.90
10905;DHT22;5505;51.450;9.254;2023-09-18T09:35:36;21.20;99.90
10905;DHT22;5505;51.450;9.254;2023-09-18T09:38:29;21.30;99.90
10905;DHT22;5505;51.450;9.254;2023-09-18T09:41:17;21.50;99.90
10905;DHT22;5505;51.450;9.254;2023-09-18T09:44:05;21.30;99.90
10905;DHT22;5505;51.450;9.254;2023-09-18T09:46:53;21.30;99.90
10905;DHT22;5505;51.450;9.254;2023-09-18T09:49:45;21.30;99.90
10905;DHT22;5505;51.450;9.254;2023-09-18T09:52:33;21.20;99.90
10905;DHT22;5505;51.450;9.254;2023-09-18T09:55:22;21.20;99.90
10905;DHT22;5505;51.450;9.254;2023-09-18T09:58:10;21.30;99.90
10905;DHT22;5505;51.450;9.254;2023-09-18T10:01:03;21.40;99.90
10905;DHT22;5505;51.450;9.254;2023-09-18T10:03:56;21.50;99.90
10905;DHT22;5505;51.450;9.254;2023-09-18T10:06:45;21.50;99.90
10905;DHT22;5505;51.450;9.254;2023-09-18T10:09:35;21.50;99.90
10905;DHT22;5505;51.450;9.254;2023-09-18T10:12:22;21.60;99.90
10905;DHT22;5505;51.450;9.254;2023-09-18T10:15:11;21.70;99.90
10905;DHT22;5505;51.450;9.254;2023-09-18T10:18:02;21.70;99.90
10905;DHT22;5505;51.450;9.254;2023-09-18T10:20:52;21.60;99.90
10905;DHT22;5505;51.450;9.254;2023-09-18T10:23:50;21.70;99.90
10905;DHT22;5505;51.450;9.254;2023-09-18T10:26:47;21.80;99.90
10905;DHT22;5505;51.450;9.254;2023-09-18T10:29:36;21.80;99.90
10905;DHT22;5505;51.450;9.254;2023-09-18T10:32:26;21.80;99.90
10905;DHT22;5505;51.450;9.254;2023-09-18T10:35:14;21.80;99.90
10905;DHT22;5505;51.450;9.254;2023-09-18T10:38:03;21.80;99.90
10905;DHT22;5505;51.450;9.254;2023-09-18T10:40:53;21.80;99.90
10905;DHT22;5505;51.450;9.254;2023-09-18T10:43:40;21.80;99.90
10905;DHT22;5505;51.450;9.254;2023-09-18T10:46:27;21.70;99.90
10905;DHT22;5505;51.450;9.254;2023-09-18T10:49:14;21.80;99.90
10905;DHT22;5505;51.450;9.254;2023-09-18T10:52:02;21.80;99.90
10905;DHT22;5505;51.450;9.254;2023-09-18T10:54:51;21.80;99.90
10905;DHT22;5505;51.450;9.254;2023-09-18T10:57:38;21.80;99.90
10905;DHT22;5505;51.450;9.254;2023-09-18T11:00:35;21.80;99.90
10905;DHT22;5505;51.450;9.254;2023-09-18T11:03:23;21.70;99.90
10905;DHT22;5505;51.450;9.254;2023-09-18T11:06:11;21.60;99.90
10905;DHT22;5505;51.450;9.254;2023-09-18T11:09:00;21.60;99.90
10905;DHT22;5505;51.450;9.254;2023-09-18T11:11:53;21.50;99.90
10905;DHT22;5505;51.450;9.254;2023-09-18T11:14:44;21.50;99.90
10905;DHT22;5505;51.450;9.254;2023-09-18T11:17:32;21.40;99.90
10905;DHT22;5505;51.450;9.254;2023-09-18T11:20:23;21.30;99.90
10905;DHT22;5505;51.450;9.254;2023-09-18T11:23:16;21.30;99.90
10905;DHT22;5505;51.450;9.254;2023-09-18T11:26:04;21.30;99.90
10905;DHT22;5505;51.450;9.254;2023-09-18T11:28:54;21.40;99.90
10905;DHT22;5505;51.450;9.254;2023-09-18T11:31:42;21.40;99.90
10905;DHT22;5505;51.450;9.254;2023-09-18T11:34:31;21.50;99.90
10905;DHT22;5505;51.450;9.254;2023-09-18T11:37:20;21.60;99.90
10905;DHT22;5505;51.450;9.254;2023-09-18T11:40:28;21.60;99.90
10905;DHT22;5505;51.450;9.254;2023-09-18T11:43:20;21.60;99.90
10905;DHT22;5505;51.450;9.254;2023-09-18T11:46:18;21.60;99.90
10905;DHT22;5505;51.450;9.254;2023-09-18T11:49:05;21.70;99.90
10905;DHT22;5505;51.450;9.254;2023-09-18T11:51:53;21.80;99.90
10905;DHT22;5505;51.450;9.254;2023-09-18T11:54:40;21.60;99.90
10905;DHT22;5505;51.450;9.254;2023-09-18T11:57:28;21.70;99.90
10905;DHT22;5505;51.450;9.254;2023-09-18T12:00:18;21.80;99.90
10905;DHT22;5505;51.450;9.254;2023-09-18T12:03:18;21.80;99.90
10905;DHT22;5505;51.450;9.254;2023-09-18T12:06:10;21.80;99.90
10905;DHT22;5505;51.450;9.254;2023-09-18T12:08:58;21.90;99.90
10905;DHT22;5505;51.450;9.254;2023-09-18T12:11:45;21.80;99.90
10905;DHT22;5505;51.450;9.254;2023-09-18T12:14:34;22.30;99.90
10905;DHT22;5505;51.450;9.254;2023-09-18T12:17:21;21.70;99.90
10905;DHT22;5505;51.450;9.254;2023-09-18T12:20:16;21.70;99.90
10905;DHT22;5505;51.450;9.254;2023-09-18T12:23:04;21.70;99.90
10905;DHT22;5505;51.450;9.254;2023-09-18T12:25:59;21.70;99.90
10905;DHT22;5505;51.450;9.254;2023-09-18T12:28:46;21.70;99.90
10905;DHT22;5505;51.450;9.254;2023-09-18T12:31:35;21.70;99.90
10905;DHT22;5505;51.450;9.254;2023-09-18T12:34:22;21.70;99.90
10905;DHT22;5505;51.450;9.254;2023-09-18T12:37:13;21.70;99.90
10905;DHT22;5505;51.450;9.254;2023-09-18T12:40:00;21.90;99.90
10905;DHT22;5505;51.450;9.254;2023-09-18T12:42:49;21.70;99.90
10905;DHT22;5505;51.450;9.254;2023-09-18T12:45:36;21.80;99.90
10905;DHT22;5505;51.450;9.254;2023-09-18T12:48:23;21.70;99.90
10905;DHT22;5505;51.450;9.254;2023-09-18T12:51:12;21.80;99.90
10905;DHT22;5505;51.450;9.254;2023-09-18T12:54:02;21.70;99.90
10905;DHT22;5505;51.450;9.254;2023-09-18T12:56:52;21.70;99.90
10905;DHT22;5505;51.450;9.254;2023-09-18T12:59:38;21.60;99.90
10905;DHT22;5505;51.450;9.254;2023-09-18T13:02:25;21.70;99.90
10905;DHT22;5505;51.450;9.254;2023-09-18T13:05:12;21.80;99.90
10905;DHT22;5505;51.450;9.254;2023-09-18T13:08:03;22.00;99.90
10905;DHT22;5505;51.450;9.254;2023-09-18T13:10:52;22.00;99.90
10905;DHT22;5505;51.450;9.254;2023-09-18T13:13:39;22.10;99.90
10905;DHT22;5505;51.450;9.254;2023-09-18T13:16:26;22.20;99.90
10905;DHT22;5505;51.450;9.254;2023-09-18T13:19:12;22.20;99.90
10905;DHT22;5505;51.450;9.254;2023-09-18T13:21:59;22.30;99.90
10905;DHT22;5505;51.450;9.254;2023-09-18T13:24:46;22.20;99.90
10905;DHT22;5505;51.450;9.254;2023-09-18T13:27:34;22.30;99.90
10905;DHT22;5505;51.450;9.254;2023-09-18T13:30:21;22.30;99.90
10905;DHT22;5505;51.450;9.254;2023-09-18T13:33:09;22.40;99.90
10905;DHT22;5505;51.450;9.254;2023-09-18T13:35:56;22.30;99.90
10905;DHT22;5505;51.450;9.254;2023-09-18T13:38:43;22.30;99.90
10905;DHT22;5505;51.450;9.254;2023-09-18T13:41:30;22.20;99.90
10905;DHT22;5505;51.450;9.254;2023-09-18T13:44:19;22.30;99.90
10905;DHT22;5505;51.450;9.254;2023-09-18T13:47:06;22.30;99.90
10905;DHT22;5505;51.450;9.254;2023-09-18T13:49:52;22.30;99.90
10905;DHT22;5505;51.450;9.254;2023-09-18T13:52:42;22.20;99.90
10905;DHT22;5505;51.450;9.254;2023-09-18T13:55:28;22.20;99.90
10905;DHT22;5505;51.450;9.254;2023-09-18T13:58:15;22.10;99.90
10905;DHT22;5505;51.450;9.254;2023-09-18T14:01:04;22.20;99.90
10905;DHT22;5505;51.450;9.254;2023-09-18T14:03:50;22.10;99.90
10905;DHT22;5505;51.450;9.254;2023-09-18T14:06:37;22.80;99.90
10905;DHT22;5505;51.450;9.254;2023-09-18T14:09:24;22.10;99.90
10905;DHT22;5505;51.450;9.254;2023-09-18T14:12:11;22.20;99.90
10905;DHT22;5505;51.450;9.254;2023-09-18T14:14:57;22.50;99.90
10905;DHT22;5505;51.450;9.254;2023-09-18T14:17:46;22.20;99.90
10905;DHT22;5505;51.450;9.254;2023-09-18T14:20:33;22.20;99.90
10905;DHT22;5505;51.450;9.254;2023-09-18T14:23:20;22.40;99.90
10905;DHT22;5505;51.450;9.254;2023-09-18T14:26:07;22.30;99.90
10905;DHT22;5505;51.450;9.254;2023-09-18T14:28:53;22.40;99.90
10905;DHT22;5505;51.450;9.254;2023-09-18T14:31:41;22.40;99.90
10905;DHT22;5505;51.450;9.254;2023-09-18T14:34:29;22.40;99.90
10905;DHT22;5505;51.450;9.254;2023-09-18T14:37:16;22.50;99.90
10905;DHT22;5505;51.450;9.254;2023-09-18T14:40:04;22.40;99.90
10905;DHT22;5505;51.450;9.254;2023-09-18T14:42:51;22.30;99.90
10905;DHT22;5505;51.450;9.254;2023-09-18T14:45:38;22.40;99.90
10905;DHT22;5505;51.450;9.254;2023-09-18T14:48:25;22.30;99.90
10905;DHT22;5505;51.450;9.254;2023-09-18T14:51:15;22.20;99.90
10905;DHT22;5505;51.450;9.254;2023-09-18T14:54:03;22.20;99.90
10905;DHT22;5505;51.450;9.254;2023-09-18T14:56:50;22.20;99.90
10905;DHT22;5505;51.450;9.254;2023-09-18T14:59:36;22.20;99.90
10905;DHT22;5505;51.450;9.254;2023-09-18T15:02:24;22.20;99.90
10905;DHT22;5505;51.450;9.254;2023-09-18T15:05:15;22.30;99.90
10905;DHT22;5505;51.450;9.254;2023-09-18T15:08:05;22.20;99.90
10905;DHT22;5505;51.450;9.254;2023-09-18T15:10:52;22.20;99.90
10905;DHT22;5505;51.450;9.254;2023-09-18T15:13:38;22.20;99.90
10905;DHT22;5505;51.450;9.254;2023-09-18T15:16:25;22.20;99.90
10905;DHT22;5505;51.450;9.254;2023-09-18T15:19:12;22.20;99.90
10905;DHT22;5505;51.450;9.254;2023-09-18T15:21:59;22.10;99.90
10905;DHT22;5505;51.450;9.254;2023-09-18T15:24:48;22.10;99.90
10905;DHT22;5505;51.450;9.254;2023-09-18T15:27:35;22.20;99.90
10905;DHT22;5505;51.450;9.254;2023-09-18T15:30:22;22.10;99.90
10905;DHT22;5505;51.450;9.254;2023-09-18T15:33:10;22.00;99.90
10905;DHT22;5505;51.450;9.254;2023-09-18T15:35:57;22.10;99.90
10905;DHT22;5505;51.450;9.254;2023-09-18T15:38:44;22.00;99.90
10905;DHT22;5505;51.450;9.254;2023-09-18T15:41:32;22.00;99.90
10905;DHT22;5505;51.450;9.254;2023-09-18T15:44:20;21.90;99.90
10905;DHT22;5505;51.450;9.254;2023-09-18T15:47:06;22.00;99.90
10905;DHT22;5505;51.450;9.254;2023-09-18T15:49:53;22.00;99.90
10905;DHT22;5505;51.450;9.254;2023-09-18T15:52:40;21.90;99.90
10905;DHT22;5505;51.450;9.254;2023-09-18T15:55:27;22.00;99.90
10905;DHT22;5505;51.450;9.254;2023-09-18T15:58:15;22.00;99.90
10905;DHT22;5505;51.450;9.254;2023-09-18T16:01:03;22.00;99.90
10905;DHT22;5505;51.450;9.254;2023-09-18T16:03:50;22.00;99.90
10905;DHT22;5505;51.450;9.254;2023-09-18T16:06:37;21.90;99.90
10905;DHT22;5505;51.450;9.254;2023-09-18T16:09:23;21.90;99.90
10905;DHT22;5505;51.450;9.254;2023-09-18T16:12:10;21.90;99.90
10905;DHT22;5505;51.450;9.254;2023-09-18T16:14:58;21.80;99.90
10905;DHT22;5505;51.450;9.254;2023-09-18T16:17:45;21.70;99.90
10905;DHT22;5505;51.450;9.254;2023-09-18T16:20:32;21.70;99.90
10905;DHT22;5505;51.450;9.254;2023-09-18T16:23:19;21.70;99.90
10905;DHT22;5505;51.450;9.254;2023-09-18T16:26:05;21.70;99.90
10905;DHT22;5505;51.450;9.254;2023-09-18T16:28:53;21.60;99.90
10905;DHT22;5505;51.450;9.254;2023-09-18T16:31:41;21.50;99.90
10905;DHT22;5505;51.450;9.254;2023-09-18T16:34:27;21.50;99.90
10905;DHT22;5505;51.450;9.254;2023-09-18T16:37:14;21.40;99.90
10905;DHT22;5505;51.450;9.254;2023-09-18T16:40:01;21.40;99.90
10905;DHT22;5505;51.450;9.254;2023-09-18T16:42:48;21.30;99.90
10905;DHT22;5505;51.450;9.254;2023-09-18T16:45:35;21.30;99.90
10905;DHT22;5505;51.450;9.254;2023-09-18T16:48:23;21.30;99.90
10905;DHT22;5505;51.450;9.254;2023-09-18T16:51:11;21.10;99.90
10905;DHT22;5505;51.450;9.254;2023-09-18T16:53:58;21.00;99.90
10905;DHT22;5505;51.450;9.254;2023-09-18T16:56:45;21.50;99.90
10905;DHT22;5505;51.450;9.254;2023-09-18T16:59:32;21.00;99.90
10905;DHT22;5505;51.450;9.254;2023-09-18T17:02:19;21.00;99.90
10905;DHT22;5505;51.450;9.254;2023-09-18T17:05:07;21.00;99.90
10905;DHT22;5505;51.450;9.254;2023-09-18T17:07:54;20.90;99.90
10905;DHT22;5505;51.450;9.254;2023-09-18T17:10:41;20.80;99.90
10905;DHT22;5505;51.450;9.254;2023-09-18T17:13:28;20.80;99.90
10905;DHT22;5505;51.450;9.254;2023-09-18T17:16:15;20.70;99.90
10905;DHT22;5505;51.450;9.254;2023-09-18T17:19:04;20.70;99.90
10905;DHT22;5505;51.450;9.254;2023-09-18T17:21:53;20.70;99.90
10905;DHT22;5505;51.450;9.254;2023-09-18T17:24:40;20.60;99.90
10905;DHT22;5505;51.450;9.254;2023-09-18T17:27:27;20.50;99.90
10905;DHT22;5505;51.450;9.254;2023-09-18T17:30:14;20.50;99.90
10905;DHT22;5505;51.450;9.254;2023-09-18T17:33:01;20.50;99.90
10905;DHT22;5505;51.450;9.254;2023-09-18T17:35:49;20.40;99.90
10905;DHT22;5505;51.450;9.254;2023-09-18T17:38:37;20.40;99.90
10905;DHT22;5505;51.450;9.254;2023-09-18T17:41:24;20.40;99.90
10905;DHT22;5505;51.450;9.254;2023-09-18T17:44:13;20.30;99.90
10905;DHT22;5505;51.450;9.254;2023-09-18T17:46:59;20.30;99.90
10905;DHT22;5505;51.450;9.254;2023-09-18T17:49:46;20.20;99.90
10905;DHT22;5505;51.450;9.254;2023-09-18T17:52:33;20.20;99.90
10905;DHT22;5505;51.450;9.254;2023-09-18T17:55:21;20.10;99.90
10905;DHT22;5505;51.450;9.254;2023-09-18T17:58:08;20.20;99.90